createdAt,value
2019-05-07T00:04:00.000Z,98859
2019-05-07T00:09:00.000Z,98867
2019-05-07T00:14:00.000Z,98861
2019-05-07T00:20:00.000Z,98856
2019-05-07T00:25:00.000Z,98857
2019-05-07T00:30:00.000Z,98847
2019-05-07T00:35:00.000Z,98853
2019-05-07T00:40:00.000Z,98862
2019-05-07T00:45:00.000Z,98855
2019-05-07T00:50:00.000Z,98859
2019-05-07T00:55:00.000Z,98863
2019-05-07T01:00:00.000Z,98860
2019-05-07T01:05:00.000Z,98864
2019-05-07T01:10:00.000Z,98861
2019-05-07T01:15:00.000Z,98855
2019-05-07T01:20:00.000Z,98854
2019-05-07T01:25:00.000Z,98857
2019-05-07T01:30:00.000Z,98857
2019-05-07T01:35:00.000Z,98863
2019-05-07T01:40:00.000Z,98876
2019-05-07T01:45:00.000Z,98875
2019-05-07T01:50:00.000Z,98877
2019-05-07T01:55:00.000Z,98879
2019-05-07T02:00:00.000Z,98883
2019-05-07T02:05:00.000Z,98884
2019-05-07T02:10:00.000Z,98882
2019-05-07T02:15:00.000Z,98884
2019-05-07T02:21:00.000Z,98877
2019-05-07T02:26:00.000Z,98884
2019-05-07T02:31:00.000Z,98888
2019-05-07T02:36:00.000Z,98888
2019-05-07T02:41:00.000Z,98886
2019-05-07T02:46:00.000Z,98889
2019-05-07T02:51:00.000Z,98898
2019-05-07T02:56:00.000Z,98897
2019-05-07T03:01:00.000Z,98901
2019-05-07T03:06:00.000Z,98902
2019-05-07T03:11:00.000Z,98904
2019-05-07T03:16:00.000Z,98901
2019-05-07T03:21:00.000Z,98906
2019-05-07T03:26:00.000Z,98898
2019-05-07T03:31:00.000Z,98901
2019-05-07T03:36:00.000Z,98909
2019-05-07T03:41:00.000Z,98913
2019-05-07T03:46:00.000Z,98910
2019-05-07T03:52:00.000Z,98905
2019-05-07T03:57:00.000Z,98908
2019-05-07T04:02:00.000Z,98916
2019-05-07T04:07:00.000Z,98915
2019-05-07T04:12:00.000Z,98922
2019-05-07T04:17:00.000Z,98926
2019-05-07T04:22:00.000Z,98927
2019-05-07T04:27:00.000Z,98940
2019-05-07T04:32:00.000Z,98936
2019-05-07T04:37:00.000Z,98940
2019-05-07T04:42:00.000Z,98941
2019-05-07T04:47:00.000Z,98939
2019-05-07T04:52:00.000Z,98943
2019-05-07T04:57:00.000Z,98945
2019-05-07T05:02:00.000Z,98939
2019-05-07T05:07:00.000Z,98940
2019-05-07T05:12:00.000Z,98943
2019-05-07T05:17:00.000Z,98939
2019-05-07T05:22:00.000Z,98932
2019-05-07T05:27:00.000Z,98937
2019-05-07T05:32:00.000Z,98941
2019-05-07T05:38:00.000Z,98946
2019-05-07T05:43:00.000Z,98943
2019-05-07T05:48:00.000Z,98950
2019-05-07T05:53:00.000Z,98947
2019-05-07T05:58:00.000Z,98942
2019-05-07T06:03:00.000Z,98945
2019-05-07T06:08:00.000Z,98957
2019-05-07T06:13:00.000Z,98946
2019-05-07T06:18:00.000Z,98949
2019-05-07T06:23:00.000Z,98962
2019-05-07T06:28:00.000Z,98973
2019-05-07T06:33:00.000Z,98973
2019-05-07T06:38:00.000Z,98965
2019-05-07T06:43:00.000Z,98965
2019-05-07T06:48:00.000Z,98968
2019-05-07T06:53:00.000Z,98969
2019-05-07T06:58:00.000Z,98970
2019-05-07T07:03:00.000Z,98970
2019-05-07T07:08:00.000Z,98982
2019-05-07T07:13:00.000Z,98977
2019-05-07T07:18:00.000Z,98980
2019-05-07T07:23:00.000Z,98974
2019-05-07T07:28:00.000Z,98989
2019-05-07T07:33:00.000Z,98971
2019-05-07T07:38:00.000Z,98973
2019-05-07T07:44:00.000Z,98974
2019-05-07T07:49:00.000Z,98977
2019-05-07T07:54:00.000Z,98973
2019-05-07T07:59:00.000Z,98963
2019-05-07T08:04:00.000Z,98975
2019-05-07T08:09:00.000Z,98968
2019-05-07T08:14:00.000Z,98967
2019-05-07T08:19:00.000Z,98969
2019-05-07T08:24:00.000Z,98974
2019-05-07T08:29:00.000Z,98971
2019-05-07T08:34:00.000Z,98956
2019-05-07T08:39:00.000Z,98959
2019-05-07T08:44:00.000Z,98965
2019-05-07T08:49:00.000Z,98967
2019-05-07T08:54:00.000Z,98972
2019-05-07T08:59:00.000Z,98971
2019-05-07T09:05:00.000Z,98971
2019-05-07T09:10:00.000Z,98961
2019-05-07T09:15:00.000Z,98976
2019-05-07T09:20:00.000Z,98960
2019-05-07T09:25:00.000Z,98964
2019-05-07T09:30:00.000Z,98959
2019-05-07T09:35:00.000Z,98969
2019-05-07T09:40:00.000Z,98967
2019-05-07T09:45:00.000Z,98966
2019-05-07T09:50:00.000Z,98965
2019-05-07T09:55:00.000Z,98968
2019-05-07T10:00:00.000Z,98974
2019-05-07T10:05:00.000Z,98977
2019-05-07T10:10:00.000Z,98971
2019-05-07T10:15:00.000Z,98973
2019-05-07T10:20:00.000Z,98964
2019-05-07T10:25:00.000Z,98975
2019-05-07T10:30:00.000Z,98963
2019-05-07T10:35:00.000Z,98965
2019-05-07T10:40:00.000Z,98957
2019-05-07T10:45:00.000Z,98961
2019-05-07T10:50:00.000Z,98965
2019-05-07T10:55:00.000Z,98960
2019-05-07T11:00:00.000Z,98963
2019-05-07T11:05:00.000Z,98943
2019-05-07T11:10:00.000Z,98944
2019-05-07T11:15:00.000Z,98942
2019-05-07T11:20:00.000Z,98939
2019-05-07T11:25:00.000Z,98954
2019-05-07T11:30:00.000Z,98942
2019-05-07T11:35:00.000Z,98937
2019-05-07T11:40:00.000Z,98922
2019-05-07T11:45:00.000Z,98923
2019-05-07T11:51:00.000Z,98917
2019-05-07T11:56:00.000Z,98910
2019-05-07T12:01:00.000Z,98911
2019-05-07T12:06:00.000Z,98897
2019-05-07T12:11:00.000Z,98892
2019-05-07T12:16:00.000Z,98910
2019-05-07T12:21:00.000Z,98911
2019-05-07T12:26:00.000Z,98918
2019-05-07T12:31:00.000Z,98908
2019-05-07T12:36:00.000Z,98899
2019-05-07T12:41:00.000Z,98906
2019-05-07T12:46:00.000Z,98892
2019-05-07T12:51:00.000Z,98899
2019-05-07T12:56:00.000Z,98895
2019-05-07T13:01:00.000Z,98905
2019-05-07T13:06:00.000Z,98896
2019-05-07T13:11:00.000Z,98898
2019-05-07T13:16:00.000Z,98898
2019-05-07T13:21:00.000Z,98883
2019-05-07T13:26:00.000Z,98883
2019-05-07T13:31:00.000Z,98874
2019-05-07T13:36:00.000Z,98883
2019-05-07T13:41:00.000Z,98875
2019-05-07T13:46:00.000Z,98874
2019-05-07T13:51:00.000Z,98878
2019-05-07T13:57:00.000Z,98874
2019-05-07T14:02:00.000Z,98863
2019-05-07T14:07:00.000Z,98862
2019-05-07T14:12:00.000Z,98864
2019-05-07T14:17:00.000Z,98859
2019-05-07T14:22:00.000Z,98857
2019-05-07T14:27:00.000Z,98860
2019-05-07T14:32:00.000Z,98849
2019-05-07T14:37:00.000Z,98859
2019-05-07T14:42:00.000Z,98850
2019-05-07T14:47:00.000Z,98849
2019-05-07T14:52:00.000Z,98853
2019-05-07T14:57:00.000Z,98834
2019-05-07T15:02:00.000Z,98852
2019-05-07T15:07:00.000Z,98858
2019-05-07T15:12:00.000Z,98851
2019-05-07T15:17:00.000Z,98864
2019-05-07T15:22:00.000Z,98861
2019-05-07T15:27:00.000Z,98865
2019-05-07T15:32:00.000Z,98856
2019-05-07T15:37:00.000Z,98847
2019-05-07T15:42:00.000Z,98847
2019-05-07T15:47:00.000Z,98844
2019-05-07T15:52:00.000Z,98839
2019-05-07T15:57:00.000Z,98842
2019-05-07T16:02:00.000Z,98835
2019-05-07T16:08:00.000Z,98841
2019-05-07T16:13:00.000Z,98832
2019-05-07T16:18:00.000Z,98832
2019-05-07T16:23:00.000Z,98822
2019-05-07T16:28:00.000Z,98824
2019-05-07T16:33:00.000Z,98826
2019-05-07T16:38:00.000Z,98821
2019-05-07T16:43:00.000Z,98828
2019-05-07T16:48:00.000Z,98825
2019-05-07T16:53:00.000Z,98828
2019-05-07T16:58:00.000Z,98828
2019-05-07T17:03:00.000Z,98827
2019-05-07T17:08:00.000Z,98830
2019-05-07T17:13:00.000Z,98821
2019-05-07T17:18:00.000Z,98829
2019-05-07T17:23:00.000Z,98822
2019-05-07T17:28:00.000Z,98823
2019-05-07T17:33:00.000Z,98827
2019-05-07T17:38:00.000Z,98825
2019-05-07T17:43:00.000Z,98829
2019-05-07T17:48:00.000Z,98819
2019-05-07T17:53:00.000Z,98826
2019-05-07T17:59:00.000Z,98837
2019-05-07T18:04:00.000Z,98839
2019-05-07T18:09:00.000Z,98833
2019-05-07T18:14:00.000Z,98833
2019-05-07T18:19:00.000Z,98835
2019-05-07T18:24:00.000Z,98848
2019-05-07T18:29:00.000Z,98847
2019-05-07T18:34:00.000Z,98853
2019-05-07T18:39:00.000Z,98843
2019-05-07T18:44:00.000Z,98855
2019-05-07T18:49:00.000Z,98858
2019-05-07T18:54:00.000Z,98856
2019-05-07T18:59:00.000Z,98856
2019-05-07T19:04:00.000Z,98863
2019-05-07T19:09:00.000Z,98868
2019-05-07T19:14:00.000Z,98862
2019-05-07T19:19:00.000Z,98864
2019-05-07T19:24:00.000Z,98861
2019-05-07T19:29:00.000Z,98857
2019-05-07T19:34:00.000Z,98853
2019-05-07T19:39:00.000Z,98849
2019-05-07T19:44:00.000Z,98859
2019-05-07T19:49:00.000Z,98852
2019-05-07T19:54:00.000Z,98851
2019-05-07T20:00:00.000Z,98841
2019-05-07T20:05:00.000Z,98843
2019-05-07T20:10:00.000Z,98844
2019-05-07T20:15:00.000Z,98844
2019-05-07T20:20:00.000Z,98847
2019-05-07T20:25:00.000Z,98843
2019-05-07T20:30:00.000Z,98842
2019-05-07T20:35:00.000Z,98850
2019-05-07T20:40:00.000Z,98850
2019-05-07T20:45:00.000Z,98849
2019-05-07T20:50:00.000Z,98854
2019-05-07T20:55:00.000Z,98849
2019-05-07T21:00:00.000Z,98863
2019-05-07T21:05:00.000Z,98854
2019-05-07T21:10:00.000Z,98845
2019-05-07T21:15:00.000Z,98858
2019-05-07T21:20:00.000Z,98846
2019-05-07T21:25:00.000Z,98848
2019-05-07T21:30:00.000Z,98849
2019-05-07T21:35:00.000Z,98852
2019-05-07T21:40:00.000Z,98858
2019-05-07T21:45:00.000Z,98855
2019-05-07T21:50:00.000Z,98852
2019-05-07T21:55:00.000Z,98853
2019-05-07T22:01:00.000Z,98857
2019-05-07T22:06:00.000Z,98862
2019-05-07T22:11:00.000Z,98853
2019-05-07T22:16:00.000Z,98846
2019-05-07T22:21:00.000Z,98843
2019-05-07T22:26:00.000Z,98839
2019-05-07T22:31:00.000Z,98838
2019-05-07T22:36:00.000Z,98827
2019-05-07T22:41:00.000Z,98833
2019-05-07T22:46:00.000Z,98822
2019-05-07T22:51:00.000Z,98821
2019-05-07T22:56:00.000Z,98828
2019-05-07T23:01:00.000Z,98823
2019-05-07T23:06:00.000Z,98826
2019-05-07T23:11:00.000Z,98822
2019-05-07T23:16:00.000Z,98816
2019-05-07T23:21:00.000Z,98816
2019-05-07T23:26:00.000Z,98816
2019-05-07T23:31:00.000Z,98816
2019-05-07T23:36:00.000Z,98804
2019-05-07T23:41:00.000Z,98807
2019-05-07T23:46:00.000Z,98798
2019-05-07T23:51:00.000Z,98791
2019-05-07T23:56:00.000Z,98787
